Time;durP1;ratioP1;P1;durP2;ratioP2;P2;SDS_P1;SDS_P2;PMS_P1;PMS_P2;Temp;Humidity;BMP_temperature;BMP_pressure;BME280_temperature;BME280_humidity;BME280_pressure;Samples;Min_cycle;Max_cycle;Signal;HPM_P1;HPM_P2
2021/10/09 00:01:26;;;;;;;224.87;38.57;;;9.50;94.20;;;;;;5075006;28;20175;-87
2021/10/09 00:03:52;;;;;;;99.67;34.87;;;9.60;94.20;;;;;;5073402;28;20270;-87
2021/10/09 00:06:19;;;;;;;113.87;31.37;;;9.50;94.10;;;;;;5073954;28;20187;-87
2021/10/09 00:08:45;;;;;;;266.67;32.80;;;9.70;94.20;;;;;;5074456;28;20566;-87
2021/10/09 00:11:17;;;;;;;82.87;29.87;;;9.70;94.20;;;;;;5073280;28;20183;-87
2021/10/09 00:13:44;;;;;;;254.40;28.00;;;9.70;94.20;;;;;;5073292;28;20628;-87
2021/10/09 00:16:09;;;;;;;239.97;28.53;;;9.60;94.10;;;;;;5073087;28;20203;-87
2021/10/09 00:18:35;;;;;;;224.83;24.67;;;9.50;94.00;;;;;;5074280;28;20206;-87
2021/10/09 00:21:00;;;;;;;235.00;25.77;;;9.50;94.00;;;;;;5073363;28;20183;-87
2021/10/09 00:23:26;;;;;;;202.53;26.03;;;9.30;94.00;;;;;;5074357;28;20204;-87
2021/10/09 00:25:54;;;;;;;201.67;23.60;;;9.30;94.00;;;;;;5073153;28;20178;-87
2021/10/09 00:28:19;;;;;;;191.10;24.47;;;9.20;94.00;;;;;;5072888;28;20284;-87
2021/10/09 00:30:45;;;;;;;214.67;26.63;;;9.10;94.00;;;;;;5072906;28;20258;-87
2021/10/09 00:33:11;;;;;;;198.13;30.50;;;9.10;94.00;;;;;;5072807;28;20217;-87
2021/10/09 00:35:36;;;;;;;217.17;27.23;;;9.00;94.00;;;;;;5073940;28;20222;-87
2021/10/09 00:38:02;;;;;;;294.50;29.73;;;9.00;94.00;;;;;;5072774;28;20270;-87
2021/10/09 00:40:27;;;;;;;294.63;33.73;;;8.90;94.00;;;;;;5074022;28;20250;-87
2021/10/09 00:42:53;;;;;;;362.07;31.77;;;8.90;94.10;;;;;;5072951;28;20182;-87
2021/10/09 00:45:19;;;;;;;250.50;27.73;;;8.90;94.00;;;;;;5073901;28;20167;-87
2021/10/09 00:47:45;;;;;;;289.70;28.40;;;8.90;94.00;;;;;;5073825;28;20217;-87
2021/10/09 00:50:11;;;;;;;295.17;31.73;;;8.80;94.00;;;;;;5072512;28;20229;-87
2021/10/09 00:52:38;;;;;;;302.20;27.97;;;8.80;94.00;;;;;;5073741;28;20163;-87
2021/10/09 00:55:05;;;;;;;297.43;31.53;;;8.80;94.10;;;;;;5072472;28;20225;-87
2021/10/09 00:57:35;;;;;;;320.00;34.33;;;8.80;94.10;;;;;;5072397;28;20205;-87
2021/10/09 01:00:02;;;;;;;52.50;29.07;;;8.80;94.30;;;;;;5073440;28;20210;-87
2021/10/09 01:02:29;;;;;;;41.20;27.00;;;8.90;94.30;;;;;;5073662;28;20168;-87
2021/10/09 01:04:55;;;;;;;41.40;25.43;;;9.00;94.30;;;;;;5072330;28;20255;-87
2021/10/09 01:07:21;;;;;;;44.07;25.60;;;9.10;94.40;;;;;;5072039;28;20274;-87
2021/10/09 01:09:46;;;;;;;81.57;23.20;;;9.10;94.40;;;;;;5073498;28;20227;-87
2021/10/09 01:12:15;;;;;;;75.17;23.00;;;9.00;94.30;;;;;;5072296;28;20182;-87
2021/10/09 01:14:42;;;;;;;449.77;34.07;;;9.00;94.30;;;;;;5072113;28;20189;-87
2021/10/09 01:17:12;;;;;;;441.70;31.37;;;9.00;94.20;;;;;;5073311;28;20220;-87
2021/10/09 01:19:39;;;;;;;316.93;28.33;;;8.90;94.10;;;;;;5072116;28;20195;-87
2021/10/09 01:22:04;;;;;;;234.40;24.77;;;8.90;94.10;;;;;;5072085;28;20171;-87
2021/10/09 01:24:30;;;;;;;187.63;23.47;;;8.90;94.00;;;;;;5072056;28;20276;-87
2021/10/09 01:26:56;;;;;;;174.20;26.53;;;8.80;94.00;;;;;;5072322;28;20226;-87
2021/10/09 01:29:22;;;;;;;180.93;24.77;;;8.80;94.00;;;;;;5073155;28;20206;-87
2021/10/09 01:31:47;;;;;;;58.33;24.53;;;8.80;94.00;;;;;;5072039;28;20186;-87
2021/10/09 01:34:13;;;;;;;91.77;29.80;;;8.70;93.90;;;;;;5071857;28;20651;-87
2021/10/09 01:36:40;;;;;;;46.10;25.63;;;8.60;93.80;;;;;;5071843;28;20226;-87
2021/10/09 01:39:07;;;;;;;52.27;27.83;;;8.60;93.80;;;;;;5071802;28;20230;-87
2021/10/09 01:41:41;;;;;;;72.23;29.00;;;8.50;93.80;;;;;;5071855;28;20175;-87
2021/10/09 01:44:08;;;;;;;68.23;29.23;;;8.50;93.90;;;;;;5071893;28;20225;-87
2021/10/09 01:46:34;;;;;;;261.20;32.70;;;8.50;93.90;;;;;;5071887;28;20178;-87
2021/10/09 01:49:00;;;;;;;188.43;30.23;;;8.50;94.00;;;;;;5071661;28;20195;-87
2021/10/09 01:51:27;;;;;;;380.90;37.53;;;8.50;94.00;;;;;;5071788;28;20182;-87
2021/10/09 01:53:53;;;;;;;270.37;30.20;;;8.50;94.00;;;;;;5071698;28;20205;-87
2021/10/09 01:56:18;;;;;;;378.57;32.77;;;8.50;94.00;;;;;;5071751;28;20203;-87
2021/10/09 01:58:44;;;;;;;367.57;32.00;;;8.30;93.90;;;;;;5073093;28;20211;-87
2021/10/09 02:01:10;;;;;;;328.20;30.43;;;8.20;93.90;;;;;;5071691;28;20179;-87
2021/10/09 02:03:35;;;;;;;327.40;32.67;;;8.10;93.90;;;;;;5071627;28;20167;-87
2021/10/09 02:06:02;;;;;;;232.30;30.93;;;8.00;93.80;;;;;;5071851;28;20179;-87
2021/10/09 02:08:27;;;;;;;187.23;30.63;;;7.90;93.90;;;;;;5072989;28;20800;-87
2021/10/09 02:13:43;;;;;;;108.67;31.97;;;7.80;94.00;;;;;;5073198;28;20281;-87
2021/10/09 02:26:54;;;;;;;49.57;30.40;;;7.70;94.10;;;;;;5076858;28;20191;-87
2021/10/09 02:29:19;;;;;;;54.20;29.70;;;7.70;94.10;;;;;;5076503;28;20192;-87
2021/10/09 02:31:45;;;;;;;52.50;30.83;;;7.70;94.10;;;;;;5075240;28;20206;-87
2021/10/09 02:34:12;;;;;;;53.43;32.00;;;7.70;94.10;;;;;;5075165;28;20654;-87
2021/10/09 02:36:38;;;;;;;49.63;29.90;;;7.70;94.20;;;;;;5074978;28;20210;-86
2021/10/09 02:39:05;;;;;;;49.33;29.93;;;7.70;94.20;;;;;;5074962;28;20191;-87
2021/10/09 02:41:30;;;;;;;50.20;30.20;;;7.70;94.10;;;;;;5075178;28;20222;-87
2021/10/09 02:43:56;;;;;;;58.20;31.97;;;7.70;94.10;;;;;;5074881;28;20172;-87
2021/10/09 02:46:21;;;;;;;42.90;29.43;;;7.70;94.00;;;;;;5074926;28;20209;-87
2021/10/09 02:48:47;;;;;;;48.87;28.63;;;7.60;94.00;;;;;;5074779;28;20290;-87
2021/10/09 02:51:13;;;;;;;55.83;31.37;;;7.50;93.90;;;;;;5074845;28;20651;-87
2021/10/09 02:53:38;;;;;;;53.77;32.60;;;7.40;93.90;;;;;;5074945;28;20175;-87
2021/10/09 02:56:04;;;;;;;64.90;33.70;;;7.40;94.00;;;;;;5074621;28;20199;-87
2021/10/09 02:58:30;;;;;;;64.33;33.23;;;7.50;94.10;;;;;;5074551;28;20299;-87
2021/10/09 03:00:56;;;;;;;58.10;35.07;;;7.50;94.10;;;;;;5074715;28;20164;-87
2021/10/09 03:03:21;;;;;;;62.53;35.17;;;7.50;94.20;;;;;;5074652;28;20178;-87
2021/10/09 03:05:47;;;;;;;62.27;36.27;;;7.50;94.20;;;;;;5074560;28;20639;-87
2021/10/09 03:08:14;;;;;;;64.30;36.00;;;7.60;94.30;;;;;;5074789;28;20630;-87
2021/10/09 03:10:40;;;;;;;63.73;35.10;;;7.60;94.30;;;;;;5074483;28;20206;-87
2021/10/09 03:13:06;;;;;;;66.97;36.23;;;7.50;94.30;;;;;;5075634;28;20206;-87
2021/10/09 03:15:31;;;;;;;68.77;35.97;;;7.60;94.40;;;;;;5074835;28;20171;-87
2021/10/09 03:17:57;;;;;;;62.43;36.87;;;7.50;94.40;;;;;;5074219;28;20302;-87
2021/10/09 03:20:23;;;;;;;67.60;38.13;;;7.60;94.40;;;;;;5074243;28;20211;-87
2021/10/09 03:22:48;;;;;;;62.13;35.23;;;7.50;94.30;;;;;;5074237;28;20176;-87
2021/10/09 03:25:16;;;;;;;60.17;35.50;;;7.50;94.40;;;;;;5074285;28;20178;-87
2021/10/09 03:27:42;;;;;;;63.33;37.63;;;7.50;94.40;;;;;;5074049;28;20643;-87
2021/10/09 03:30:09;;;;;;;59.60;34.77;;;7.50;94.40;;;;;;5073994;28;20273;-87
2021/10/09 03:32:35;;;;;;;68.20;35.30;;;7.50;94.40;;;;;;5073996;28;20194;-87
2021/10/09 03:35:01;;;;;;;60.40;35.67;;;7.50;94.40;;;;;;5073978;28;20182;-87
2021/10/09 03:37:27;;;;;;;57.33;34.23;;;7.50;94.40;;;;;;5074014;28;20207;-87
2021/10/09 03:39:55;;;;;;;52.93;33.50;;;7.50;94.40;;;;;;5073996;28;20199;-87
2021/10/09 03:42:57;;;;;;;56.77;33.23;;;7.40;94.30;;;;;;5074186;28;20179;-87
2021/10/09 03:46:01;;;;;;;49.63;31.37;;;7.50;94.30;;;;;;5073857;28;20179;-87
2021/10/09 03:53:29;;;;;;;47.43;30.53;;;7.40;94.10;;;;;;5075141;28;20213;-87
2021/10/09 03:55:55;;;;;;;51.60;30.87;;;7.30;94.00;;;;;;5073590;28;20175;-87
2021/10/09 03:58:20;;;;;;;52.97;31.63;;;7.30;94.00;;;;;;5073586;28;20211;-87
2021/10/09 04:00:46;;;;;;;54.33;31.53;;;7.20;94.00;;;;;;5074046;28;20151;-87
2021/10/09 04:03:11;;;;;;;57.27;32.03;;;7.20;94.00;;;;;;5074921;28;20168;-87
2021/10/09 04:05:37;;;;;;;59.30;32.93;;;7.20;94.10;;;;;;5074568;28;20296;-87
2021/10/09 04:08:06;;;;;;;56.03;33.40;;;7.20;94.10;;;;;;5074555;28;20229;-87
2021/10/09 04:10:33;;;;;;;51.73;32.93;;;7.20;94.10;;;;;;5073297;28;20185;-87
2021/10/09 04:12:58;;;;;;;50.90;32.87;;;7.20;94.20;;;;;;5073246;28;20179;-87
2021/10/09 04:15:24;;;;;;;48.87;32.57;;;7.20;94.20;;;;;;5073214;28;20183;-87
2021/10/09 04:17:49;;;;;;;57.13;34.27;;;7.20;94.20;;;;;;5072930;28;20607;-87
2021/10/09 04:20:15;;;;;;;52.90;32.90;;;7.20;94.20;;;;;;5073081;28;20193;-87
2021/10/09 04:22:41;;;;;;;54.20;33.33;;;7.10;94.10;;;;;;5073014;28;20643;-87
2021/10/09 04:25:07;;;;;;;58.87;34.57;;;7.00;94.10;;;;;;5073087;28;20186;-87
2021/10/09 04:27:34;;;;;;;55.30;33.40;;;7.10;94.20;;;;;;5072915;28;20522;-87
2021/10/09 04:29:59;;;;;;;59.77;33.20;;;7.10;94.20;;;;;;5074364;28;20223;-87
2021/10/09 04:32:25;;;;;;;54.97;33.33;;;7.10;94.30;;;;;;5072991;28;20244;-87
2021/10/09 04:34:50;;;;;;;57.60;33.57;;;7.20;94.20;;;;;;5072885;28;20199;-86
2021/10/09 04:37:16;;;;;;;56.67;31.53;;;7.10;94.10;;;;;;5072691;28;20217;-87
2021/10/09 04:39:42;;;;;;;43.77;28.47;;;7.10;94.10;;;;;;5072665;28;20243;-87
2021/10/09 04:42:07;;;;;;;48.30;29.77;;;7.10;94.10;;;;;;5072246;28;20639;-88
2021/10/09 04:44:33;;;;;;;45.07;29.77;;;7.00;93.90;;;;;;5072748;28;20183;-87
2021/10/09 04:46:58;;;;;;;41.30;28.13;;;6.90;93.90;;;;;;5072601;28;20193;-87
2021/10/09 04:49:24;;;;;;;50.53;27.77;;;6.90;93.90;;;;;;5072534;28;20199;-87
2021/10/09 04:51:50;;;;;;;44.97;27.73;;;6.90;93.80;;;;;;5072456;28;20185;-87
2021/10/09 04:54:15;;;;;;;44.93;28.63;;;6.90;93.80;;;;;;5073088;28;20664;-87
2021/10/09 04:56:41;;;;;;;47.67;30.60;;;6.80;93.80;;;;;;5073064;28;20218;-87
2021/10/09 04:59:07;;;;;;;44.13;28.90;;;6.80;93.80;;;;;;5072355;28;20218;-87
2021/10/09 05:01:32;;;;;;;44.77;27.73;;;6.80;93.80;;;;;;5073806;28;20170;-87
2021/10/09 05:03:58;;;;;;;44.63;29.73;;;6.80;93.80;;;;;;5072231;28;20213;-87
2021/10/09 05:06:24;;;;;;;42.00;28.27;;;6.80;93.80;;;;;;5072386;28;20179;-87
2021/10/09 05:08:49;;;;;;;42.37;27.80;;;6.80;93.80;;;;;;5072139;28;20203;-87
2021/10/09 05:11:19;;;;;;;41.83;28.90;;;6.80;93.80;;;;;;5072161;28;20183;-87
2021/10/09 05:13:45;;;;;;;53.80;28.10;;;6.80;93.80;;;;;;5072126;28;20178;-87
2021/10/09 05:16:11;;;;;;;41.60;27.50;;;6.70;93.70;;;;;;5072126;28;20237;-87
2021/10/09 05:18:36;;;;;;;48.37;28.97;;;6.60;93.70;;;;;;5073286;28;20198;-87
2021/10/09 05:21:02;;;;;;;46.70;29.83;;;6.60;93.70;;;;;;5072050;28;20256;-87
2021/10/09 05:23:30;;;;;;;51.27;29.73;;;6.60;93.70;;;;;;5072050;28;20635;-87
2021/10/09 05:25:57;;;;;;;47.10;29.97;;;6.60;93.80;;;;;;5073707;28;20207;-87
2021/10/09 05:31:08;;;;;;;49.73;30.10;;;6.60;93.70;;;;;;5073337;28;20163;-87
2021/10/09 05:36:00;;;;;;;48.77;29.43;;;6.40;93.60;;;;;;5073250;28;20535;-87
2021/10/09 05:38:25;;;;;;;45.50;28.17;;;6.30;93.60;;;;;;5072459;28;20588;-86
2021/10/09 05:40:51;;;;;;;43.27;28.40;;;6.30;93.60;;;;;;5071857;28;20269;-86
2021/10/09 05:43:20;;;;;;;46.33;29.13;;;6.30;93.60;;;;;;5071907;28;20183;-86
2021/10/09 05:45:45;;;;;;;46.67;31.57;;;6.30;93.60;;;;;;5071977;28;20188;-87
2021/10/09 05:48:11;;;;;;;43.20;30.07;;;6.30;93.60;;;;;;5071783;28;20214;-86
2021/10/09 05:50:54;;;;;;;49.87;31.03;;;6.30;93.70;;;;;;5071822;28;20665;-87
2021/10/09 05:53:44;;;;;;;48.87;31.17;;;6.30;93.80;;;;;;5074507;28;20162;-87
2021/10/09 06:31:28;;;;;;;51.20;32.50;;;7.00;94.10;;;;;;5076987;28;20174;-86
2021/10/09 06:46:59;;;;;;;44.70;29.73;;;7.30;93.70;;;;;;5076176;28;20158;-87
2021/10/09 07:00:14;;;;;;;40.63;28.23;;;7.50;93.50;;;;;;5076350;28;20642;-87
2021/10/09 07:02:41;;;;;;;43.33;27.07;;;7.50;93.30;;;;;;5075911;28;20176;-87
2021/10/09 07:05:08;;;;;;;46.07;28.40;;;7.50;93.20;;;;;;5074169;28;20182;-87
2021/10/09 07:07:39;;;;;;;44.47;27.63;;;7.60;93.10;;;;;;5074567;28;20592;-87
2021/10/09 07:10:06;;;;;;;39.63;28.07;;;7.60;92.90;;;;;;5074923;28;20245;-87
2021/10/09 07:12:32;;;;;;;43.53;27.60;;;7.70;92.90;;;;;;5074745;28;20214;-87
2021/10/09 07:14:57;;;;;;;45.07;26.50;;;7.70;92.80;;;;;;5074415;28;20216;-87
2021/10/09 07:17:23;;;;;;;39.73;25.13;;;7.80;92.70;;;;;;5074454;28;20293;-87
2021/10/09 07:19:49;;;;;;;43.17;25.03;;;7.80;92.50;;;;;;5075467;28;20247;-87
2021/10/09 07:22:14;;;;;;;46.60;24.07;;;7.80;92.20;;;;;;5074166;28;20595;-87
2021/10/09 07:24:40;;;;;;;43.57;24.47;;;7.90;92.10;;;;;;5074760;28;20178;-87
2021/10/09 07:27:06;;;;;;;33.67;23.17;;;7.90;92.00;;;;;;5074101;28;20179;-87
2021/10/09 07:29:31;;;;;;;48.20;24.47;;;8.00;91.70;;;;;;5074015;28;20199;-87
2021/10/09 07:31:57;;;;;;;34.90;23.20;;;8.10;91.70;;;;;;5075223;28;20175;-87
2021/10/09 07:34:23;;;;;;;32.03;22.97;;;8.10;91.60;;;;;;5075388;28;20178;-87
2021/10/09 07:36:48;;;;;;;42.30;22.70;;;8.20;91.50;;;;;;5073893;28;20298;-87
2021/10/09 07:39:14;;;;;;;31.93;22.23;;;8.30;91.40;;;;;;5075118;28;20219;-87
2021/10/09 07:41:40;;;;;;;36.47;23.27;;;8.30;91.30;;;;;;5075228;28;20171;-87
2021/10/09 07:44:06;;;;;;;32.10;21.57;;;8.40;91.30;;;;;;5075061;28;20172;-87
2021/10/09 07:46:31;;;;;;;33.43;21.83;;;8.40;90.80;;;;;;5074107;28;20183;-87
2021/10/09 07:48:57;;;;;;;37.53;22.17;;;8.40;90.60;;;;;;5075038;28;20282;-86
2021/10/09 07:51:23;;;;;;;37.03;21.23;;;8.50;90.20;;;;;;5075022;28;20224;-87
2021/10/09 07:53:49;;;;;;;29.13;20.93;;;8.60;89.90;;;;;;5075077;28;20178;-87
2021/10/09 07:56:14;;;;;;;32.67;21.33;;;8.60;90.10;;;;;;5074907;28;20667;-87
2021/10/09 07:58:40;;;;;;;30.07;21.30;;;8.60;89.80;;;;;;5073732;28;20218;-87
2021/10/09 08:01:06;;;;;;;33.80;21.60;;;8.70;89.90;;;;;;5074776;28;20533;-87
2021/10/09 08:03:31;;;;;;;33.50;19.87;;;8.80;89.80;;;;;;5073384;28;20183;-87
2021/10/09 08:05:57;;;;;;;34.47;19.07;;;8.80;89.00;;;;;;5073409;28;20183;-87
2021/10/09 08:08:23;;;;;;;31.70;20.23;;;8.90;88.60;;;;;;5073562;28;20192;-87
2021/10/09 08:10:50;;;;;;;40.60;20.07;;;9.00;88.70;;;;;;5073428;28;20178;-87
2021/10/09 08:13:17;;;;;;;32.00;18.60;;;9.00;88.40;;;;;;5074540;28;20163;-87
2021/10/09 08:15:43;;;;;;;37.10;18.83;;;9.10;88.30;;;;;;5073922;28;20183;-87
2021/10/09 08:18:09;;;;;;;36.90;18.70;;;9.20;87.70;;;;;;5072981;28;20290;-87
2021/10/09 08:20:36;;;;;;;29.83;17.63;;;9.20;87.60;;;;;;5073182;28;20175;-87
2021/10/09 08:23:06;;;;;;;26.47;17.30;;;9.30;87.40;;;;;;5073032;28;20179;-87
2021/10/09 08:36:17;;;;;;;30.63;17.00;;;9.80;86.20;;;;;;5074667;28;20163;-87
2021/10/09 08:41:08;;;;;;;32.53;17.07;;;9.80;85.10;;;;;;5074008;28;20170;-87
2021/10/09 08:43:34;;;;;;;28.70;17.03;;;9.80;84.50;;;;;;5072732;28;20175;-87
2021/10/09 08:46:00;;;;;;;31.73;15.73;;;9.90;84.90;;;;;;5072628;28;20270;-87
2021/10/09 08:48:30;;;;;;;28.73;15.93;;;10.00;84.50;;;;;;5072618;28;20658;-87
2021/10/09 08:50:56;;;;;;;26.70;15.90;;;10.00;83.20;;;;;;5072615;28;20270;-87
2021/10/09 08:53:35;;;;;;;28.47;16.77;;;10.20;83.70;;;;;;5072552;28;20175;-87
2021/10/09 08:56:01;;;;;;;23.50;15.70;;;10.30;84.10;;;;;;5073722;28;20205;-87
2021/10/09 08:58:39;;;;;;;25.87;16.30;;;10.40;83.70;;;;;;5072307;28;20249;-87
2021/10/09 09:01:20;;;;;;;33.37;15.73;;;10.50;84.10;;;;;;5073712;28;20151;-87
2021/10/09 09:06:43;;;;;;;26.00;14.70;;;10.70;81.10;;;;;;5073872;28;20209;-87
2021/10/09 09:25:27;;;;;;;26.00;13.90;;;11.00;79.10;;;;;;5073969;28;20221;-86
2021/10/09 09:33:50;;;;;;;21.23;12.90;;;11.60;74.50;;;;;;5073731;28;20171;-86
2021/10/09 09:36:27;;;;;;;22.27;12.90;;;11.70;75.90;;;;;;5071830;28;20175;-86
2021/10/09 09:38:55;;;;;;;22.13;13.10;;;11.80;75.30;;;;;;5071803;28;20194;-86
2021/10/09 09:41:24;;;;;;;26.33;13.63;;;11.90;74.30;;;;;;5071874;28;20211;-86
2021/10/09 09:43:54;;;;;;;35.10;13.63;;;12.00;75.20;;;;;;5073043;28;20167;-86
2021/10/09 09:46:26;;;;;;;25.53;12.53;;;12.10;75.70;;;;;;5073105;28;20186;-85
2021/10/09 09:48:53;;;;;;;28.23;13.70;;;12.20;73.60;;;;;;5071747;28;20199;-86
2021/10/09 09:51:21;;;;;;;22.57;13.20;;;12.10;73.20;;;;;;5073349;28;20246;-85
2021/10/09 09:53:48;;;;;;;23.77;13.43;;;12.20;74.80;;;;;;5071740;28;20651;-86
2021/10/09 09:56:15;;;;;;;17.33;10.70;;;12.30;72.90;;;;;;5071583;28;20179;-86
2021/10/09 09:58:44;;;;;;;30.10;13.03;;;12.30;71.20;;;;;;5071587;28;20215;-85
2021/10/09 10:01:12;;;;;;;21.67;11.70;;;12.40;71.70;;;;;;5072975;28;20176;-86
2021/10/09 10:03:45;;;;;;;23.47;10.30;;;12.40;70.90;;;;;;5072889;28;20171;-88
2021/10/09 10:06:11;;;;;;;18.77;10.87;;;12.60;70.40;;;;;;5071782;28;20216;-86
2021/10/09 10:08:41;;;;;;;21.77;10.30;;;12.70;69.30;;;;;;5071639;28;20191;-87
2021/10/09 10:11:09;;;;;;;25.43;9.33;;;12.80;68.30;;;;;;5071628;28;20615;-87
2021/10/09 10:13:36;;;;;;;18.80;8.97;;;12.80;66.30;;;;;;5071550;28;20171;-87
2021/10/09 10:16:08;;;;;;;14.33;8.53;;;12.90;68.60;;;;;;5071393;28;20186;-86
2021/10/09 10:18:45;;;;;;;19.87;8.37;;;13.00;65.40;;;;;;5071339;28;20195;-86
2021/10/09 10:21:38;;;;;;;15.30;8.43;;;13.10;64.60;;;;;;5071434;28;20181;-87
2021/10/09 10:24:04;;;;;;;23.30;8.80;;;13.20;66.60;;;;;;5072399;28;20183;-86
2021/10/09 10:26:32;;;;;;;22.97;7.93;;;13.30;65.10;;;;;;5071418;28;20183;-86
2021/10/09 10:28:57;;;;;;;15.27;7.90;;;13.50;66.20;;;;;;5072548;28;20773;-86
2021/10/09 10:31:25;;;;;;;23.00;7.57;;;13.60;63.90;;;;;;5071594;28;20183;-86
2021/10/09 10:33:58;;;;;;;26.37;7.40;;;13.70;62.00;;;;;;5072573;28;20168;-87
2021/10/09 10:36:43;;;;;;;20.77;7.73;;;13.80;62.10;;;;;;5072593;28;20183;-87
2021/10/09 10:39:09;;;;;;;16.20;6.93;;;14.00;62.60;;;;;;5073421;28;20187;-87
2021/10/09 10:41:45;;;;;;;17.30;6.40;;;14.00;61.10;;;;;;5075308;28;20179;-87
2021/10/09 10:44:46;;;;;;;7.37;4.87;;;14.10;59.60;;;;;;5075025;28;20202;-87
2021/10/09 10:47:48;;;;;;;18.63;5.83;;;14.20;57.00;;;;;;5074888;28;20171;-87
2021/10/09 10:53:46;;;;;;;11.23;5.40;;;14.10;56.50;;;;;;5076635;28;20175;-86
2021/10/09 10:56:10;;;;;;;12.30;4.57;;;14.20;54.20;;;;;;5075803;28;20186;-87
2021/10/09 10:58:37;;;;;;;14.70;5.50;;;14.30;56.00;;;;;;5074675;28;20280;-86
2021/10/09 11:01:22;;;;;;;11.67;5.03;;;14.40;57.00;;;;;;5074709;28;20214;-86
2021/10/09 11:03:57;;;;;;;6.30;4.03;;;14.30;53.60;;;;;;5074573;28;20186;-87
2021/10/09 11:06:25;;;;;;;9.03;4.57;;;14.40;52.10;;;;;;5075864;28;20207;-86
2021/10/09 11:08:52;;;;;;;7.07;4.27;;;14.40;52.60;;;;;;5074895;28;20210;-86
2021/10/09 11:11:35;;;;;;;8.93;4.70;;;14.50;54.30;;;;;;5075788;28;20206;-86
2021/10/09 11:14:01;;;;;;;15.83;5.87;;;14.60;51.70;;;;;;5075012;28;20229;-85
2021/10/09 11:16:31;;;;;;;10.47;4.63;;;14.70;52.80;;;;;;5076178;28;20605;-86
2021/10/09 11:18:57;;;;;;;9.07;4.03;;;14.80;50.90;;;;;;5075281;28;20199;-86
2021/10/09 11:21:23;;;;;;;12.63;5.00;;;14.80;51.20;;;;;;5074714;28;20183;-87
2021/10/09 11:23:57;;;;;;;10.43;4.93;;;14.80;51.80;;;;;;5074733;28;20176;-86
2021/10/09 11:26:25;;;;;;;11.67;4.63;;;14.90;50.80;;;;;;5074583;28;20176;-87
2021/10/09 11:29:01;;;;;;;7.03;4.17;;;15.00;54.10;;;;;;5075469;28;20199;-87
2021/10/09 11:31:28;;;;;;;9.27;4.03;;;15.10;52.00;;;;;;5075585;28;20643;-86
2021/10/09 11:33:59;;;;;;;9.63;4.43;;;15.10;50.00;;;;;;5074225;28;20304;-87
2021/10/09 11:36:25;;;;;;;8.27;4.30;;;15.10;51.10;;;;;;5075559;28;20214;-87
2021/10/09 11:39:00;;;;;;;11.93;4.43;;;15.20;51.30;;;;;;5074052;28;20191;-86
2021/10/09 11:41:26;;;;;;;8.83;3.93;;;15.20;51.80;;;;;;5074302;28;20184;-87
2021/10/09 11:44:04;;;;;;;8.67;4.50;;;15.20;51.00;;;;;;5074059;28;20309;-86
2021/10/09 11:55:27;;;;;;;10.18;4.30;;;15.60;52.90;;;;;;5075806;28;20170;-86
2021/10/09 11:57:54;;;;;;;7.53;4.23;;;15.60;49.80;;;;;;5075022;28;20657;-87
2021/10/09 12:00:29;;;;;;;7.32;4.28;;;15.70;48.80;;;;;;5074402;28;20692;-86
2021/10/09 12:02:55;;;;;;;16.27;5.30;;;15.90;51.30;;;;;;5073790;28;20232;-86
2021/10/09 12:05:22;;;;;;;11.32;4.70;;;15.70;49.20;;;;;;5073791;28;20183;-87
2021/10/09 12:08:15;;;;;;;8.90;4.47;;;15.70;50.60;;;;;;5074305;28;20541;-87
2021/10/09 12:11:01;;;;;;;11.00;4.53;;;15.70;49.50;;;;;;5073784;28;20186;-86
2021/10/09 12:13:27;;;;;;;13.05;4.70;;;15.70;52.80;;;;;;5073499;28;20175;-87
2021/10/09 12:15:52;;;;;;;11.23;4.82;;;15.60;50.30;;;;;;5073437;28;20228;-87
2021/10/09 12:18:18;;;;;;;8.35;4.68;;;15.70;51.30;;;;;;5074432;28;20622;-86
2021/10/09 12:20:43;;;;;;;13.20;4.72;;;15.80;51.40;;;;;;5073488;28;20218;-87
2021/10/09 12:23:10;;;;;;;16.52;5.75;;;15.80;51.50;;;;;;5074482;28;20198;-86
2021/10/09 12:25:36;;;;;;;9.75;5.03;;;15.80;50.00;;;;;;5073322;28;20178;-86
2021/10/09 12:28:03;;;;;;;19.30;5.18;;;15.70;50.40;;;;;;5074480;28;20554;-86
2021/10/09 12:30:38;;;;;;;10.95;4.88;;;15.70;48.90;;;;;;5073180;28;20175;-87
2021/10/09 12:33:04;;;;;;;7.75;4.75;;;15.60;51.00;;;;;;5073345;28;20578;-86
2021/10/09 12:35:32;;;;;;;8.02;5.05;;;15.70;51.80;;;;;;5074431;28;20186;-86
2021/10/09 12:38:09;;;;;;;10.45;4.72;;;15.80;52.80;;;;;;5072817;28;20260;-86
2021/10/09 12:40:48;;;;;;;10.85;5.20;;;15.90;50.50;;;;;;5073623;28;20511;-86
2021/10/09 12:43:18;;;;;;;15.25;5.50;;;16.00;52.00;;;;;;5073016;28;20190;-87
2021/10/09 12:45:45;;;;;;;11.43;5.47;;;15.90;52.20;;;;;;5072808;28;20168;-87
2021/10/09 12:48:11;;;;;;;10.45;5.15;;;15.80;50.10;;;;;;5072620;28;20709;-87
2021/10/09 12:50:41;;;;;;;14.68;5.85;;;15.80;52.70;;;;;;5074001;28;20183;-87
2021/10/09 12:53:07;;;;;;;11.57;6.55;;;15.70;52.80;;;;;;5072575;28;20182;-86
2021/10/09 12:55:34;;;;;;;16.00;6.47;;;15.60;52.90;;;;;;5072579;28;20179;-87
2021/10/09 12:58:02;;;;;;;15.38;5.85;;;15.50;52.00;;;;;;5072355;28;20621;-86
2021/10/09 13:00:29;;;;;;;10.63;6.00;;;15.40;54.00;;;;;;5073784;28;20591;-87
2021/10/09 13:02:57;;;;;;;10.30;5.85;;;15.30;52.10;;;;;;5071958;28;20168;-86
2021/10/09 13:05:25;;;;;;;14.07;5.83;;;15.30;53.20;;;;;;5072407;28;20172;-87
2021/10/09 13:07:52;;;;;;;11.63;6.53;;;15.30;52.90;;;;;;5073617;28;20179;-87
2021/10/09 13:10:19;;;;;;;13.80;5.80;;;15.40;53.50;;;;;;5072684;28;20195;-87
2021/10/09 13:12:46;;;;;;;9.48;4.97;;;15.40;51.20;;;;;;5072489;28;20175;-87
2021/10/09 13:15:17;;;;;;;14.27;5.10;;;15.30;53.20;;;;;;5072410;28;20187;-89
2021/10/09 13:17:43;;;;;;;14.97;5.10;;;15.30;51.90;;;;;;5073627;28;20191;-88
2021/10/09 13:20:09;;;;;;;15.05;5.13;;;15.30;51.40;;;;;;5072194;28;20185;-88
2021/10/09 13:22:34;;;;;;;20.00;5.77;;;15.40;53.20;;;;;;5072688;28;20254;-88
2021/10/09 13:25:00;;;;;;;16.38;5.57;;;15.50;53.90;;;;;;5072223;28;20598;-87
2021/10/09 13:27:26;;;;;;;12.15;5.40;;;15.40;51.20;;;;;;5073391;28;20164;-87
2021/10/09 13:29:51;;;;;;;10.85;5.40;;;15.40;52.40;;;;;;5072036;28;20195;-87
2021/10/09 13:32:17;;;;;;;11.13;5.63;;;15.50;50.60;;;;;;5072211;28;20312;-87
2021/10/09 13:34:42;;;;;;;17.52;5.53;;;15.60;52.20;;;;;;5072043;28;20262;-86
2021/10/09 13:37:08;;;;;;;12.15;5.70;;;15.60;49.20;;;;;;5071976;28;20597;-86
2021/10/09 13:39:34;;;;;;;8.52;5.30;;;15.50;50.70;;;;;;5072006;28;20202;-87
2021/10/09 13:41:59;;;;;;;9.13;4.82;;;15.50;50.30;;;;;;5073468;28;20552;-87
2021/10/09 13:44:26;;;;;;;15.13;4.97;;;15.60;50.40;;;;;;5071932;28;20171;-87
2021/10/09 13:46:51;;;;;;;12.82;5.65;;;15.60;51.10;;;;;;5073184;28;20668;-87
2021/10/09 13:49:17;;;;;;;17.60;5.32;;;15.80;52.70;;;;;;5073059;28;20194;-86
2021/10/09 13:51:43;;;;;;;14.77;5.10;;;15.90;51.90;;;;;;5073172;28;20163;-86
2021/10/09 13:54:09;;;;;;;10.95;5.47;;;15.90;51.00;;;;;;5071903;28;20592;-89
2021/10/09 13:56:35;;;;;;;18.10;5.80;;;15.80;51.00;;;;;;5071702;28;20203;-88
2021/10/09 13:59:00;;;;;;;12.77;5.10;;;15.90;53.90;;;;;;5071702;28;20214;-88
2021/10/09 14:01:26;;;;;;;11.85;5.88;;;15.80;51.90;;;;;;5071869;28;20277;-88
2021/10/09 14:03:52;;;;;;;18.27;6.40;;;15.80;51.70;;;;;;5072154;28;20225;-88
2021/10/09 14:06:17;;;;;;;19.88;4.93;;;15.70;50.20;;;;;;5072015;28;20175;-87
2021/10/09 14:08:43;;;;;;;11.93;6.00;;;15.70;52.40;;;;;;5073218;28;20229;-88
2021/10/09 14:11:09;;;;;;;11.25;5.35;;;15.70;51.50;;;;;;5071751;28;20594;-87
2021/10/09 14:13:34;;;;;;;15.38;5.63;;;15.70;51.00;;;;;;5071723;28;20179;-87
2021/10/09 14:16:01;;;;;;;13.15;5.15;;;15.60;50.90;;;;;;5075828;28;20262;-87
2021/10/09 14:18:26;;;;;;;8.57;4.57;;;15.60;49.90;;;;;;5075654;28;20211;-88
2021/10/09 14:20:54;;;;;;;15.38;5.20;;;15.60;49.70;;;;;;5075806;28;20225;-87
2021/10/09 14:23:20;;;;;;;15.52;4.82;;;15.40;50.00;;;;;;5076812;28;20209;-87
2021/10/09 14:25:46;;;;;;;12.32;5.05;;;15.50;50.50;;;;;;5076392;28;20291;-87
2021/10/09 14:28:13;;;;;;;11.60;5.30;;;15.40;49.50;;;;;;5076679;28;20570;-87
2021/10/09 14:30:40;;;;;;;9.77;5.43;;;15.40;49.50;;;;;;5075523;28;20179;-87
2021/10/09 14:33:07;;;;;;;12.48;5.25;;;15.40;50.70;;;;;;5075291;28;20183;-86
2021/10/09 14:35:35;;;;;;;10.63;5.35;;;15.40;51.60;;;;;;5076755;28;20720;-87
2021/10/09 14:38:01;;;;;;;13.63;5.35;;;15.40;50.30;;;;;;5076840;28;20202;-87
2021/10/09 14:40:27;;;;;;;9.45;4.93;;;15.40;51.20;;;;;;5075405;28;20182;-87
2021/10/09 14:42:52;;;;;;;11.05;4.85;;;15.30;48.90;;;;;;5075456;28;20171;-86
2021/10/09 14:45:18;;;;;;;11.43;4.70;;;15.30;48.80;;;;;;5075202;28;20674;-87
2021/10/09 14:52:59;;;;;;;10.68;4.97;;;15.20;51.40;;;;;;5076680;28;20683;-86
2021/10/09 14:56:05;;;;;;;15.40;4.95;;;15.30;52.40;;;;;;5075138;28;20159;-87
2021/10/09 15:20:04;;;;;;;13.17;5.17;;;14.70;53.60;;;;;;5076839;28;20416;-86